Time;durP1;ratioP1;P1;durP2;ratioP2;P2;SDS_P1;SDS_P2;PMS_P1;PMS_P2;Temp;Humidity;BMP_temperature;BMP_pressure;BME280_temperature;BME280_humidity;BME280_pressure;Samples;Min_cycle;Max_cycle;Signal;HPM_P1;HPM_P2
2024/03/16 00:00:40;;;;;;;1.15;0.60;;;19.40;92.20;;;;;;5052881;28;20024;-35
2024/03/16 00:03:05;;;;;;;0.95;0.57;;;19.40;92.20;;;;;;5053016;28;20021;-35
2024/03/16 00:05:31;;;;;;;1.08;0.40;;;19.40;92.30;;;;;;5052830;28;20377;-35
2024/03/16 00:07:57;;;;;;;1.98;0.60;;;19.40;92.30;;;;;;5052542;28;20032;-36
2024/03/16 00:10:22;;;;;;;0.70;0.43;;;19.40;92.30;;;;;;5052772;28;20032;-35
2024/03/16 00:12:48;;;;;;;1.20;0.50;;;19.40;92.30;;;;;;5052945;28;20507;-35
2024/03/16 00:15:14;;;;;;;0.93;0.60;;;19.40;92.30;;;;;;5053197;28;20029;-37
2024/03/16 00:17:39;;;;;;;0.77;0.50;;;19.40;92.30;;;;;;5052726;28;20063;-36
2024/03/16 00:20:10;;;;;;;0.30;0.30;;;19.30;92.70;;;;;;5052672;28;20028;-36
2024/03/16 00:22:39;;;;;;;0.40;0.30;;;19.30;92.30;;;;;;5053114;28;20098;-35
2024/03/16 00:25:06;;;;;;;0.80;0.50;;;19.30;92.30;;;;;;5052615;28;20075;-35
2024/03/16 00:27:33;;;;;;;0.90;0.50;;;19.30;92.30;;;;;;5052232;28;20024;-36
2024/03/16 00:29:59;;;;;;;1.25;0.43;;;19.30;92.40;;;;;;5052310;28;20025;-36
2024/03/16 00:32:24;;;;;;;0.90;0.40;;;19.30;92.40;;;;;;5052252;28;20476;-37
2024/03/16 00:34:50;;;;;;;0.60;0.30;;;19.30;92.40;;;;;;5052281;28;20040;-36
2024/03/16 00:37:16;;;;;;;0.63;0.30;;;19.30;92.40;;;;;;5052072;28;20043;-36
2024/03/16 00:39:41;;;;;;;2.70;0.60;;;19.30;92.40;;;;;;5052204;28;20053;-36
2024/03/16 00:42:10;;;;;;;0.93;0.50;;;19.30;92.40;;;;;;5052302;28;20040;-35
2024/03/16 00:44:36;;;;;;;0.77;0.43;;;19.30;92.40;;;;;;5052137;28;20484;-36
2024/03/16 00:47:02;;;;;;;0.60;0.40;;;19.30;92.40;;;;;;5051833;28;20021;-35
2024/03/16 00:49:27;;;;;;;0.60;0.25;;;19.20;92.40;;;;;;5052035;28;20047;-37
2024/03/16 00:51:53;;;;;;;0.60;0.45;;;19.20;92.40;;;;;;5051839;28;20116;-38
2024/03/16 00:54:18;;;;;;;0.57;0.32;;;19.20;92.50;;;;;;5052267;28;20078;-37
2024/03/16 00:56:46;;;;;;;0.60;0.40;;;19.20;92.40;;;;;;5051697;28;20033;-35
2024/03/16 00:59:12;;;;;;;0.70;0.30;;;19.20;92.50;;;;;;5051825;28;20028;-38
2024/03/16 01:01:38;;;;;;;0.30;0.20;;;19.20;92.50;;;;;;5051766;28;20052;-37
2024/03/16 01:04:04;;;;;;;0.38;0.22;;;19.20;92.50;;;;;;5051921;28;20032;-37
2024/03/16 01:06:30;;;;;;;1.30;0.30;;;19.20;92.80;;;;;;5051610;28;20032;-36
2024/03/16 01:08:56;;;;;;;0.47;0.30;;;19.20;92.50;;;;;;5051678;28;20480;-36
2024/03/16 01:11:23;;;;;;;1.08;0.40;;;19.20;92.50;;;;;;5050294;28;20075;-35
2024/03/16 01:13:49;;;;;;;0.70;0.30;;;19.10;92.50;;;;;;5051770;28;20017;-36
2024/03/16 01:16:15;;;;;;;0.40;0.30;;;19.20;92.50;;;;;;5051719;28;20058;-35
2024/03/16 01:18:41;;;;;;;1.67;0.20;;;19.10;92.50;;;;;;5051937;28;20090;-37
2024/03/16 01:21:07;;;;;;;0.55;0.40;;;19.10;92.50;;;;;;5051347;28;20067;-38
2024/03/16 01:23:33;;;;;;;0.47;0.28;;;19.10;92.50;;;;;;5051555;28;20021;-35
2024/03/16 01:26:03;;;;;;;0.45;0.30;;;19.10;92.50;;;;;;5051314;28;20040;-35
2024/03/16 01:28:30;;;;;;;0.70;0.32;;;19.10;92.60;;;;;;5051737;28;20483;-35
2024/03/16 01:30:55;;;;;;;0.30;0.30;;;19.10;92.60;;;;;;5051501;28;20033;-37
2024/03/16 01:33:21;;;;;;;0.30;0.28;;;19.10;92.60;;;;;;5055295;28;20025;-34
2024/03/16 01:35:49;;;;;;;0.30;0.20;;;19.10;92.60;;;;;;5051208;28;20021;-35
2024/03/16 01:38:16;;;;;;;0.65;0.30;;;19.10;92.60;;;;;;5051616;28;20416;-34
2024/03/16 01:40:42;;;;;;;0.77;0.30;;;19.10;92.60;;;;;;5051424;28;20021;-34
2024/03/16 01:43:12;;;;;;;0.38;0.20;;;19.10;92.60;;;;;;5051261;28;20092;-34
2024/03/16 01:45:39;;;;;;;0.40;0.20;;;19.10;92.60;;;;;;5051309;28;20021;-34
2024/03/16 01:48:09;;;;;;;0.17;0.10;;;19.10;92.60;;;;;;5051295;28;20025;-34
2024/03/16 01:50:38;;;;;;;0.63;0.40;;;19.10;92.60;;;;;;5051103;28;20391;-33
2024/03/16 01:53:05;;;;;;;1.25;0.50;;;19.00;92.60;;;;;;5051940;28;20031;-34
2024/03/16 01:55:32;;;;;;;0.30;0.20;;;19.10;92.60;;;;;;5051151;28;20075;-34
2024/03/16 01:57:58;;;;;;;0.20;0.20;;;19.00;92.60;;;;;;5050836;28;20037;-34
2024/03/16 02:00:26;;;;;;;0.60;0.40;;;19.00;92.60;;;;;;5051407;28;20372;-35
2024/03/16 02:02:52;;;;;;;0.57;0.30;;;19.00;92.60;;;;;;5050974;28;20488;-35
2024/03/16 02:05:18;;;;;;;1.08;0.40;;;19.00;92.60;;;;;;5051097;28;20550;-34
2024/03/16 02:07:44;;;;;;;0.28;0.20;;;19.00;92.70;;;;;;5050835;28;20033;-34
2024/03/16 02:10:10;;;;;;;0.52;0.20;;;19.00;92.70;;;;;;5050922;28;20032;-35
2024/03/16 02:12:36;;;;;;;0.47;0.22;;;19.00;92.70;;;;;;5051769;28;20024;-35
2024/03/16 02:15:03;;;;;;;0.40;0.20;;;19.00;92.70;;;;;;5052696;28;20284;-35
2024/03/16 02:17:29;;;;;;;0.60;0.25;;;19.00;92.70;;;;;;5051209;28;20032;-35
2024/03/16 02:19:54;;;;;;;0.13;0.10;;;19.00;92.70;;;;;;5050990;28;20021;-35
2024/03/16 02:22:20;;;;;;;0.35;0.32;;;19.00;92.70;;;;;;5050967;28;20021;-35
2024/03/16 02:24:48;;;;;;;0.70;0.30;;;19.00;92.70;;;;;;5050953;28;20044;-35
2024/03/16 02:27:14;;;;;;;0.30;0.20;;;19.00;92.70;;;;;;5050580;28;20079;-35
2024/03/16 02:29:40;;;;;;;0.63;0.40;;;18.90;92.70;;;;;;5050672;28;20103;-35
2024/03/16 02:32:08;;;;;;;0.55;0.20;;;19.00;92.70;;;;;;5050901;28;20017;-35
2024/03/16 02:34:36;;;;;;;0.65;0.30;;;18.90;92.70;;;;;;5051265;28;20036;-34
2024/03/16 02:37:02;;;;;;;0.60;0.22;;;19.00;92.70;;;;;;5050645;28;20044;-34
2024/03/16 02:39:27;;;;;;;1.27;0.32;;;18.90;92.70;;;;;;5050650;28;20460;-34
2024/03/16 02:41:55;;;;;;;0.73;0.32;;;18.90;92.70;;;;;;5050531;28;20033;-34
2024/03/16 02:44:22;;;;;;;0.50;0.30;;;18.90;92.70;;;;;;5050642;28;20035;-34
2024/03/16 02:46:48;;;;;;;0.40;0.30;;;18.90;92.70;;;;;;5050439;28;20506;-35
2024/03/16 02:49:13;;;;;;;0.40;0.30;;;18.90;92.70;;;;;;5050651;28;20025;-35
2024/03/16 02:51:39;;;;;;;0.70;0.22;;;18.90;92.70;;;;;;5050455;28;20029;-35
2024/03/16 02:54:05;;;;;;;0.43;0.20;;;18.90;92.70;;;;;;5052007;28;20025;-34
2024/03/16 02:56:30;;;;;;;0.70;0.40;;;18.90;92.70;;;;;;5054187;28;20517;-35
2024/03/16 02:58:57;;;;;;;0.90;0.30;;;18.90;92.70;;;;;;5054140;28;20090;-36
2024/03/16 03:01:23;;;;;;;0.85;0.30;;;18.90;92.70;;;;;;5054073;28;20033;-35
2024/03/16 03:03:49;;;;;;;1.88;0.40;;;18.90;92.70;;;;;;5054189;28;20180;-35
2024/03/16 03:06:14;;;;;;;0.50;0.20;;;18.90;92.80;;;;;;5054110;28;20357;-35
2024/03/16 03:08:40;;;;;;;0.88;0.17;;;18.90;92.80;;;;;;5052653;28;20031;-34
2024/03/16 03:11:05;;;;;;;0.73;0.20;;;18.80;92.80;;;;;;5053880;28;20370;-35
2024/03/16 03:13:31;;;;;;;0.60;0.20;;;18.90;92.80;;;;;;5053887;28;20489;-35
2024/03/16 03:15:56;;;;;;;0.30;0.10;;;18.80;92.80;;;;;;5053744;28;20024;-35
2024/03/16 03:18:25;;;;;;;0.35;0.25;;;18.80;92.80;;;;;;5054049;28;20033;-36
2024/03/16 03:20:57;;;;;;;0.47;0.20;;;18.80;92.80;;;;;;5053767;28;20452;-35
2024/03/16 03:23:23;;;;;;;0.95;0.40;;;18.80;92.80;;;;;;5053669;28;20051;-37
2024/03/16 03:25:49;;;;;;;0.40;0.20;;;18.80;92.80;;;;;;5053699;28;20057;-37
2024/03/16 03:28:15;;;;;;;0.50;0.30;;;18.80;92.80;;;;;;5057470;28;20043;-37
2024/03/16 03:30:43;;;;;;;0.20;0.10;;;18.80;92.80;;;;;;5056447;28;20108;-39
2024/03/16 03:33:10;;;;;;;0.40;0.30;;;18.80;92.80;;;;;;5053888;28;20041;-35
2024/03/16 03:35:38;;;;;;;0.65;0.28;;;18.80;92.80;;;;;;5053934;28;20691;-36
2024/03/16 03:38:03;;;;;;;0.20;0.20;;;18.80;92.80;;;;;;5053319;28;20575;-35
2024/03/16 03:40:30;;;;;;;0.50;0.30;;;18.80;92.80;;;;;;5053283;28;20092;-34
2024/03/16 03:42:59;;;;;;;0.40;0.30;;;18.80;92.80;;;;;;5053387;28;20036;-35
2024/03/16 03:45:48;;;;;;;0.40;0.30;;;18.80;92.90;;;;;;5053442;28;20057;-35
2024/03/16 03:50:49;;;;;;;0.47;0.28;;;18.80;92.90;;;;;;5053563;28;20023;-34
2024/03/16 03:53:15;;;;;;;0.55;0.20;;;18.80;92.90;;;;;;5053104;28;20115;-35
2024/03/16 03:55:41;;;;;;;0.45;0.35;;;18.70;92.90;;;;;;5053094;28;20029;-35
2024/03/16 03:58:07;;;;;;;0.30;0.20;;;18.80;93.20;;;;;;5052896;28;20149;-34
2024/03/16 04:00:33;;;;;;;0.75;0.30;;;18.70;92.90;;;;;;5053397;28;20488;-35
2024/03/16 04:03:05;;;;;;;1.00;0.30;;;18.80;92.90;;;;;;5053369;28;20083;-35
2024/03/16 04:05:31;;;;;;;0.43;0.20;;;18.80;92.90;;;;;;5053041;28;20021;-35
2024/03/16 04:07:56;;;;;;;0.90;0.30;;;18.70;92.90;;;;;;5052616;28;20033;-35
2024/03/16 04:10:22;;;;;;;0.35;0.20;;;18.70;92.90;;;;;;5052743;28;20025;-34
2024/03/16 04:12:48;;;;;;;0.20;0.10;;;18.70;92.90;;;;;;5052826;28;20096;-35
2024/03/16 04:15:14;;;;;;;0.75;0.30;;;18.70;92.90;;;;;;5052621;28;20033;-35
2024/03/16 04:17:40;;;;;;;0.82;0.30;;;18.70;92.90;;;;;;5052491;28;20047;-35
2024/03/16 04:20:12;;;;;;;0.63;0.30;;;18.70;93.00;;;;;;5052563;28;20472;-34
2024/03/16 04:22:41;;;;;;;0.77;0.32;;;18.70;92.90;;;;;;5052779;28;20480;-35
2024/03/16 04:25:09;;;;;;;0.47;0.20;;;18.70;93.00;;;;;;5052527;28;20029;-34
2024/03/16 04:27:41;;;;;;;0.98;0.25;;;18.80;93.00;;;;;;5052302;28;20060;-34
2024/03/16 04:30:07;;;;;;;0.40;0.20;;;18.70;93.30;;;;;;5052543;28;20071;-35
2024/03/16 04:32:33;;;;;;;1.05;0.20;;;18.70;93.00;;;;;;5052620;28;20083;-35
2024/03/16 04:34:59;;;;;;;0.75;0.30;;;18.70;93.00;;;;;;5052373;28;20308;-34
2024/03/16 04:37:25;;;;;;;0.55;0.30;;;18.70;93.00;;;;;;5052123;28;20112;-35
2024/03/16 04:39:51;;;;;;;1.42;0.22;;;18.70;93.00;;;;;;5052113;28;20071;-34
2024/03/16 04:42:17;;;;;;;0.32;0.30;;;18.70;93.00;;;;;;5052106;28;20025;-35
2024/03/16 04:44:43;;;;;;;0.65;0.20;;;18.70;93.00;;;;;;5052159;28;20037;-34
2024/03/16 04:47:09;;;;;;;1.33;0.50;;;18.70;93.00;;;;;;5052059;28;20278;-34
2024/03/16 04:49:34;;;;;;;0.55;0.30;;;18.70;93.00;;;;;;5053000;28;20074;-35
2024/03/16 04:52:00;;;;;;;1.02;0.20;;;18.70;93.00;;;;;;5054799;28;20032;-35
2024/03/16 04:54:26;;;;;;;0.73;0.20;;;18.70;93.00;;;;;;5052600;28;20021;-35
2024/03/16 04:56:52;;;;;;;0.45;0.20;;;18.70;93.00;;;;;;5052628;28;20035;-35
2024/03/16 04:59:18;;;;;;;1.10;0.30;;;18.60;93.00;;;;;;5052562;28;20029;-35
2024/03/16 05:01:44;;;;;;;1.25;0.30;;;18.70;93.00;;;;;;5052472;28;20029;-36
2024/03/16 05:04:10;;;;;;;0.38;0.30;;;18.70;93.00;;;;;;5052061;28;20118;-35
2024/03/16 05:06:35;;;;;;;0.73;0.20;;;18.70;93.00;;;;;;5053328;28;20044;-36
2024/03/16 05:09:06;;;;;;;0.52;0.38;;;18.60;93.00;;;;;;5052277;28;20506;-35
2024/03/16 05:11:32;;;;;;;0.40;0.20;;;18.60;93.00;;;;;;5051121;28;20483;-35
2024/03/16 05:13:59;;;;;;;0.73;0.35;;;18.60;93.10;;;;;;5052326;28;20025;-36
2024/03/16 05:16:25;;;;;;;0.60;0.30;;;18.60;93.10;;;;;;5051766;28;20090;-38
2024/03/16 05:18:51;;;;;;;0.77;0.30;;;18.60;93.10;;;;;;5051990;28;20108;-35
2024/03/16 05:21:16;;;;;;;0.40;0.20;;;18.60;93.10;;;;;;5051932;28;20048;-35
2024/03/16 05:23:45;;;;;;;0.38;0.20;;;18.60;93.10;;;;;;5051808;28;20021;-35
2024/03/16 05:26:11;;;;;;;0.60;0.30;;;18.60;93.10;;;;;;5051448;28;20020;-36
2024/03/16 05:28:40;;;;;;;0.40;0.30;;;18.60;93.10;;;;;;5051955;28;20027;-35
2024/03/16 05:31:10;;;;;;;1.25;0.20;;;18.60;93.10;;;;;;5051672;28;20075;-36
2024/03/16 05:33:36;;;;;;;2.80;0.30;;;18.60;93.10;;;;;;5051896;28;20017;-35
2024/03/16 05:36:02;;;;;;;1.45;0.43;;;18.60;93.10;;;;;;5051678;28;20017;-35
2024/03/16 05:38:28;;;;;;;0.80;0.10;;;18.60;93.10;;;;;;5051886;28;20052;-37
2024/03/16 05:40:56;;;;;;;0.68;0.25;;;18.60;93.10;;;;;;5050351;28;20021;-35
2024/03/16 05:43:22;;;;;;;0.75;0.40;;;18.60;93.10;;;;;;5052161;28;20140;-35
2024/03/16 05:45:53;;;;;;;1.13;0.30;;;18.60;93.10;;;;;;5051884;28;20053;-36
2024/03/16 05:48:19;;;;;;;0.88;0.30;;;18.60;93.10;;;;;;5050458;28;20112;-35
2024/03/16 05:50:48;;;;;;;0.38;0.25;;;18.60;93.10;;;;;;5052118;28;20021;-35
2024/03/16 05:53:14;;;;;;;0.40;0.13;;;18.60;93.10;;;;;;5051983;28;20021;-35
2024/03/16 05:55:40;;;;;;;0.93;0.40;;;18.60;93.10;;;;;;5051378;28;20027;-35
2024/03/16 05:58:06;;;;;;;0.60;0.30;;;18.60;93.20;;;;;;5051402;28;20037;-35
2024/03/16 06:00:37;;;;;;;1.02;0.20;;;18.50;93.20;;;;;;5051947;28;20075;-35
2024/03/16 06:03:04;;;;;;;0.68;0.35;;;18.50;93.20;;;;;;5051694;28;20112;-36
2024/03/16 06:05:33;;;;;;;0.20;0.10;;;18.50;93.20;;;;;;5051464;28;20029;-35
2024/03/16 06:07:59;;;;;;;3.38;0.50;;;18.50;93.20;;;;;;5051238;28;20052;-36
2024/03/16 06:10:25;;;;;;;0.43;0.20;;;18.50;93.20;;;;;;5051524;28;21020;-35
2024/03/16 06:12:51;;;;;;;0.90;0.20;;;18.50;93.20;;;;;;5051666;28;20056;-37
2024/03/16 06:15:17;;;;;;;0.77;0.20;;;18.50;93.20;;;;;;5051777;28;20066;-37
2024/03/16 06:17:43;;;;;;;0.63;0.20;;;18.50;93.20;;;;;;5052035;28;20489;-37
2024/03/16 06:20:12;;;;;;;0.40;0.20;;;18.50;93.20;;;;;;5051559;28;20020;-37
2024/03/16 06:22:38;;;;;;;0.55;0.20;;;18.50;93.20;;;;;;5051655;28;20025;-37
2024/03/16 06:25:04;;;;;;;0.43;0.25;;;18.50;93.20;;;;;;5051036;28;20033;-37
2024/03/16 06:27:30;;;;;;;0.68;0.40;;;18.50;93.20;;;;;;5051267;28;20036;-37
2024/03/16 06:29:57;;;;;;;0.68;0.20;;;18.50;93.20;;;;;;5054328;28;20391;-38
2024/03/16 06:32:23;;;;;;;0.38;0.20;;;18.50;93.20;;;;;;5055623;28;20045;-38
2024/03/16 06:34:48;;;;;;;0.20;0.10;;;18.50;93.20;;;;;;5055463;28;20060;-38
2024/03/16 06:37:15;;;;;;;0.30;0.17;;;18.50;93.20;;;;;;5055629;28;20051;-35
2024/03/16 06:39:41;;;;;;;0.50;0.20;;;18.50;93.20;;;;;;5055288;28;20029;-36
2024/03/16 06:42:06;;;;;;;0.57;0.30;;;18.50;93.20;;;;;;5057137;28;20025;-35
2024/03/16 06:44:32;;;;;;;0.28;0.20;;;18.50;93.20;;;;;;5059885;28;20029;-35
2024/03/16 06:46:58;;;;;;;0.85;0.28;;;18.50;93.20;;;;;;5059228;28;20033;-37
2024/03/16 06:49:24;;;;;;;0.47;0.20;;;18.50;93.20;;;;;;5055390;28;20063;-35
2024/03/16 06:51:50;;;;;;;0.70;0.20;;;18.50;93.20;;;;;;5054983;28;20025;-36
2024/03/16 06:54:15;;;;;;;0.38;0.10;;;18.50;93.20;;;;;;5054687;28;20025;-36
2024/03/16 06:56:41;;;;;;;0.55;0.20;;;18.50;93.20;;;;;;5054679;28;20407;-35
2024/03/16 06:59:08;;;;;;;0.30;0.10;;;18.50;93.20;;;;;;5053353;28;20510;-36
2024/03/16 07:01:34;;;;;;;0.30;0.10;;;18.50;93.20;;;;;;5054882;28;20041;-37
2024/03/16 07:04:00;;;;;;;0.57;0.20;;;18.60;93.20;;;;;;5055215;28;20028;-37
2024/03/16 07:06:26;;;;;;;0.40;0.10;;;18.50;93.20;;;;;;5055075;28;20036;-37
2024/03/16 07:08:51;;;;;;;0.82;0.32;;;18.50;93.20;;;;;;5053990;28;20075;-34
2024/03/16 07:11:18;;;;;;;0.82;0.17;;;18.50;93.20;;;;;;5053713;28;20033;-35
2024/03/16 07:13:44;;;;;;;0.40;0.20;;;18.50;93.20;;;;;;5054003;28;20096;-34
2024/03/16 07:16:14;;;;;;;0.73;0.22;;;18.50;93.20;;;;;;5053736;28;20120;-34
2024/03/16 07:18:43;;;;;;;0.60;0.30;;;18.60;93.20;;;;;;5053903;28;20017;-34
2024/03/16 07:21:10;;;;;;;0.30;0.15;;;18.50;93.20;;;;;;5053790;28;20021;-36
2024/03/16 07:23:35;;;;;;;0.85;0.22;;;18.60;93.20;;;;;;5053848;28;20036;-35
2024/03/16 07:26:02;;;;;;;0.45;0.20;;;18.60;93.20;;;;;;5053573;28;20029;-35
2024/03/16 07:28:29;;;;;;;0.47;0.20;;;18.60;93.20;;;;;;5053676;28;20025;-35
2024/03/16 07:30:57;;;;;;;1.05;0.25;;;18.60;93.30;;;;;;5053690;28;20020;-34
2024/03/16 07:33:23;;;;;;;0.30;0.20;;;18.60;93.20;;;;;;5053534;28;20029;-34
2024/03/16 07:35:52;;;;;;;0.40;0.10;;;18.60;93.20;;;;;;5053500;28;20024;-35
2024/03/16 07:38:18;;;;;;;0.20;0.10;;;18.60;93.20;;;;;;5053368;28;20096;-36
2024/03/16 07:40:44;;;;;;;0.60;0.20;;;18.60;93.20;;;;;;5053315;28;20124;-36
2024/03/16 07:43:09;;;;;;;0.30;0.20;;;18.60;93.20;;;;;;5053768;28;20033;-35
2024/03/16 07:45:40;;;;;;;0.30;0.10;;;18.60;93.20;;;;;;5053643;28;20040;-35
2024/03/16 07:48:06;;;;;;;0.30;0.20;;;18.60;93.20;;;;;;5053745;28;20029;-38
2024/03/16 07:50:32;;;;;;;0.50;0.20;;;18.60;93.20;;;;;;5053315;28;20028;-36
2024/03/16 07:52:58;;;;;;;0.30;0.20;;;18.60;93.20;;;;;;5053181;28;20132;-35
2024/03/16 07:55:24;;;;;;;0.88;0.30;;;18.60;93.20;;;;;;5053286;28;20523;-36
2024/03/16 07:57:50;;;;;;;0.47;0.32;;;18.60;93.20;;;;;;5052922;28;20068;-37
2024/03/16 08:00:15;;;;;;;0.45;0.20;;;18.60;93.10;;;;;;5053183;28;20059;-35
2024/03/16 08:02:41;;;;;;;1.15;0.20;;;18.60;93.10;;;;;;5053220;28;20063;-36
2024/03/16 08:05:11;;;;;;;0.52;0.20;;;18.60;93.10;;;;;;5052957;28;20414;-35
2024/03/16 08:07:37;;;;;;;0.65;0.30;;;18.60;93.10;;;;;;5052586;28;20028;-36
2024/03/16 08:10:03;;;;;;;1.35;0.20;;;18.60;93.10;;;;;;5052827;28;20017;-35
2024/03/16 08:12:29;;;;;;;0.40;0.28;;;18.60;93.10;;;;;;5052790;28;20028;-36
2024/03/16 08:14:55;;;;;;;0.10;0.10;;;18.60;93.10;;;;;;5052833;28;20021;-36
2024/03/16 08:17:22;;;;;;;0.47;0.20;;;18.60;93.10;;;;;;5052796;28;20041;-35
2024/03/16 08:19:48;;;;;;;0.25;0.20;;;18.60;93.10;;;;;;5052658;28;20392;-36
2024/03/16 08:22:13;;;;;;;0.20;0.10;;;18.60;93.10;;;;;;5052624;28;20033;-35
2024/03/16 08:24:39;;;;;;;0.40;0.20;;;18.60;93.10;;;;;;5052677;28;20100;-35
2024/03/16 08:27:04;;;;;;;0.43;0.20;;;18.60;93.10;;;;;;5052269;28;20037;-35
2024/03/16 08:29:30;;;;;;;1.08;0.40;;;18.60;93.10;;;;;;5052497;28;20415;-35
2024/03/16 08:31:56;;;;;;;0.57;0.20;;;18.60;93.00;;;;;;5052365;28;20032;-37
2024/03/16 08:34:22;;;;;;;0.25;0.10;;;18.70;93.10;;;;;;5052249;28;20017;-37
2024/03/16 08:36:48;;;;;;;0.60;0.20;;;18.70;93.10;;;;;;5052409;28;20025;-37
2024/03/16 08:39:14;;;;;;;0.20;0.10;;;18.60;93.10;;;;;;5052226;28;20032;-35
2024/03/16 08:41:39;;;;;;;0.98;0.40;;;18.70;93.10;;;;;;5052201;28;20020;-37
2024/03/16 08:44:05;;;;;;;0.15;0.10;;;18.70;93.10;;;;;;5052184;28;20068;-35
2024/03/16 08:46:31;;;;;;;0.38;0.17;;;18.70;93.10;;;;;;5052154;28;20060;-37
2024/03/16 08:48:57;;;;;;;2.42;0.30;;;18.60;93.00;;;;;;5051961;28;20027;-36
2024/03/16 08:51:23;;;;;;;2.92;0.50;;;18.60;93.20;;;;;;5051334;28;20540;-35
2024/03/16 08:53:49;;;;;;;1.38;0.40;;;18.50;93.30;;;;;;5052124;28;20100;-36
2024/03/16 08:56:15;;;;;;;1.95;0.47;;;18.50;93.40;;;;;;5051937;28;20113;-36
2024/03/16 08:58:40;;;;;;;1.70;0.38;;;18.50;93.50;;;;;;5051994;28;20033;-37
2024/03/16 09:01:06;;;;;;;1.17;0.30;;;18.40;93.80;;;;;;5052094;28;20029;-35
2024/03/16 09:03:32;;;;;;;0.70;0.25;;;18.50;93.50;;;;;;5051889;28;20454;-34
2024/03/16 09:05:57;;;;;;;0.60;0.28;;;18.50;93.40;;;;;;5050276;28;20033;-35
2024/03/16 09:08:23;;;;;;;0.63;0.40;;;18.60;93.40;;;;;;5051593;28;20081;-35
2024/03/16 09:10:48;;;;;;;0.28;0.20;;;18.60;93.40;;;;;;5051567;28;20024;-37
2024/03/16 09:13:14;;;;;;;0.60;0.32;;;18.60;93.30;;;;;;5051618;28;20021;-37
2024/03/16 09:15:40;;;;;;;0.55;0.30;;;18.60;93.30;;;;;;5051606;28;20052;-35
2024/03/16 09:18:05;;;;;;;2.90;0.28;;;18.70;93.30;;;;;;5051501;28;20025;-36
2024/03/16 09:20:31;;;;;;;1.55;0.30;;;18.70;93.20;;;;;;5051427;28;20021;-35
2024/03/16 09:22:57;;;;;;;0.73;0.35;;;18.60;93.20;;;;;;5051547;28;20063;-36
2024/03/16 09:25:23;;;;;;;0.82;0.25;;;18.70;93.30;;;;;;5051673;28;20037;-36
2024/03/16 09:27:49;;;;;;;0.38;0.20;;;18.70;93.30;;;;;;5051356;28;20094;-36
2024/03/16 09:30:16;;;;;;;0.70;0.35;;;18.70;93.30;;;;;;5052346;28;20029;-35
2024/03/16 09:32:42;;;;;;;0.73;0.32;;;18.80;93.30;;;;;;5051277;28;20024;-36
2024/03/16 09:35:10;;;;;;;1.05;0.40;;;18.70;93.20;;;;;;5051409;28;20458;-35
2024/03/16 09:37:36;;;;;;;1.15;0.30;;;18.80;93.20;;;;;;5051133;28;20047;-37
2024/03/16 09:40:09;;;;;;;0.57;0.22;;;18.80;93.20;;;;;;5051193;28;20032;-39
2024/03/16 09:42:38;;;;;;;1.23;0.38;;;18.80;93.10;;;;;;5051536;28;20037;-38
2024/03/16 09:45:18;;;;;;;1.10;0.30;;;18.80;93.10;;;;;;5051294;28;20349;-40
2024/03/16 09:47:47;;;;;;;1.85;0.38;;;18.90;93.10;;;;;;5051203;28;20090;-37
2024/03/16 09:50:14;;;;;;;0.80;0.10;;;18.90;93.10;;;;;;5049632;28;20024;-36
2024/03/16 09:52:40;;;;;;;0.65;0.30;;;18.90;93.10;;;;;;5051655;28;20037;-39
2024/03/16 09:55:10;;;;;;;0.70;0.20;;;18.90;93.10;;;;;;5051501;28;20025;-38
2024/03/16 09:57:38;;;;;;;1.30;0.25;;;19.00;93.10;;;;;;5052701;28;20060;-37
2024/03/16 10:00:10;;;;;;;0.65;0.30;;;19.10;93.10;;;;;;5054417;28;20051;-37
2024/03/16 10:02:40;;;;;;;0.70;0.20;;;19.10;93.00;;;;;;5052603;28;20083;-36
2024/03/16 10:05:17;;;;;;;0.65;0.20;;;19.10;92.90;;;;;;5055164;28;20037;-36
2024/03/16 10:07:43;;;;;;;0.45;0.15;;;19.20;93.20;;;;;;5055007;28;20021;-35
2024/03/16 10:10:15;;;;;;;0.57;0.22;;;19.20;92.80;;;;;;5054960;28;20017;-36
2024/03/16 10:12:41;;;;;;;0.50;0.30;;;19.30;92.80;;;;;;5055157;28;20063;-35
2024/03/16 10:15:15;;;;;;;0.60;0.20;;;19.30;92.70;;;;;;5055076;28;20020;-35
2024/03/16 10:17:41;;;;;;;0.85;0.40;;;19.30;92.60;;;;;;5054871;28;20028;-35
2024/03/16 10:20:16;;;;;;;0.85;0.22;;;19.40;92.60;;;;;;5055012;28;20029;-36
2024/03/16 10:22:45;;;;;;;1.02;0.30;;;19.40;92.50;;;;;;5055215;28;20426;-35
2024/03/16 10:25:12;;;;;;;1.05;0.40;;;19.40;92.50;;;;;;5054859;28;20391;-36
2024/03/16 10:27:39;;;;;;;0.65;0.20;;;19.50;92.50;;;;;;5054491;28;20025;-35
2024/03/16 10:30:12;;;;;;;0.50;0.30;;;19.50;92.40;;;;;;5054640;28;20033;-35
2024/03/16 10:32:45;;;;;;;1.17;0.25;;;19.50;92.40;;;;;;5054672;28;20045;-35
2024/03/16 10:35:25;;;;;;;0.10;0.03;;;19.50;92.40;;;;;;5053416;28;20629;-36
2024/03/16 10:37:51;;;;;;;0.55;0.20;;;19.50;92.30;;;;;;5053242;28;20488;-36
2024/03/16 10:40:18;;;;;;;0.65;0.20;;;19.50;92.30;;;;;;5054438;28;20043;-35
2024/03/16 10:42:45;;;;;;;0.43;0.20;;;19.50;92.30;;;;;;5054425;28;20393;-36
2024/03/16 10:45:16;;;;;;;0.47;0.28;;;19.50;92.30;;;;;;5054625;28;20033;-35
2024/03/16 10:47:52;;;;;;;0.90;0.30;;;19.50;92.30;;;;;;5054296;28;20025;-37
2024/03/16 10:50:24;;;;;;;0.88;0.30;;;19.50;92.30;;;;;;5053996;28;20540;-36
2024/03/16 10:52:51;;;;;;;0.40;0.30;;;19.50;92.30;;;;;;5054420;28;20025;-36
2024/03/16 10:55:22;;;;;;;0.30;0.17;;;19.50;92.20;;;;;;5054514;28;20021;-37
2024/03/16 10:57:51;;;;;;;0.90;0.10;;;19.50;92.20;;;;;;5054050;28;20444;-36
2024/03/16 11:00:23;;;;;;;0.73;0.10;;;19.60;92.30;;;;;;5054180;28;20103;-36
2024/03/16 11:03:12;;;;;;;0.35;0.10;;;19.50;92.20;;;;;;5054593;28;20029;-37
2024/03/16 11:05:48;;;;;;;1.50;0.30;;;19.60;92.30;;;;;;5053122;28;20028;-35
2024/03/16 11:08:13;;;;;;;0.90;0.30;;;19.60;92.30;;;;;;5053974;28;20021;-35
2024/03/16 11:10:43;;;;;;;0.50;0.15;;;19.60;92.30;;;;;;5054022;28;20392;-35
2024/03/16 11:13:16;;;;;;;0.85;0.30;;;19.60;92.30;;;;;;5053908;28;20021;-35
2024/03/16 11:15:43;;;;;;;0.30;0.10;;;19.60;92.30;;;;;;5053168;28;20468;-35
2024/03/16 11:18:21;;;;;;;0.32;0.28;;;19.70;92.30;;;;;;5053690;28;20032;-35
2024/03/16 11:20:50;;;;;;;0.38;0.20;;;19.70;92.30;;;;;;5054204;28;20043;-35
2024/03/16 11:23:32;;;;;;;0.20;0.20;;;19.80;92.30;;;;;;5053668;28;20021;-35
2024/03/16 11:26:19;;;;;;;0.20;0.10;;;19.80;92.20;;;;;;5053993;28;20021;-35
2024/03/16 11:28:46;;;;;;;0.38;0.10;;;19.80;92.20;;;;;;5053996;28;20033;-35
2024/03/16 11:31:29;;;;;;;0.45;0.28;;;19.90;92.20;;;;;;5053847;28;20483;-34
2024/03/16 11:33:58;;;;;;;0.40;0.13;;;20.00;92.20;;;;;;5054059;28;20075;-36
2024/03/16 11:36:24;;;;;;;1.58;0.20;;;20.00;92.20;;;;;;5054159;28;20028;-35
2024/03/16 11:38:53;;;;;;;0.25;0.17;;;20.10;92.20;;;;;;5053824;28;20078;-35
2024/03/16 11:41:19;;;;;;;0.28;0.10;;;20.10;92.20;;;;;;5053891;28;20021;-35
2024/03/16 11:43:48;;;;;;;0.20;0.17;;;20.20;92.10;;;;;;5053016;28;20035;-35
2024/03/16 11:46:19;;;;;;;0.88;0.25;;;20.30;92.10;;;;;;5053737;28;20029;-35
2024/03/16 11:48:45;;;;;;;0.50;0.10;;;20.40;92.00;;;;;;5053832;28;20104;-35
2024/03/16 11:51:13;;;;;;;0.40;0.20;;;20.40;92.00;;;;;;5054076;28;20357;-35
2024/03/16 11:53:39;;;;;;;1.65;0.20;;;20.50;92.00;;;;;;5053462;28;20469;-35
2024/03/16 11:56:11;;;;;;;0.38;0.20;;;20.60;91.90;;;;;;5053169;28;20040;-35
2024/03/16 11:58:39;;;;;;;0.57;0.20;;;20.70;91.80;;;;;;5053555;28;20096;-35
2024/03/16 12:01:12;;;;;;;0.30;0.10;;;20.70;91.70;;;;;;5053482;28;20099;-35
2024/03/16 12:03:38;;;;;;;0.38;0.20;;;20.80;91.60;;;;;;5053397;28;20021;-35
2024/03/16 12:06:05;;;;;;;0.30;0.10;;;20.90;91.50;;;;;;5051503;28;20116;-34
2024/03/16 12:08:30;;;;;;;0.45;0.10;;;21.00;91.50;;;;;;5053057;28;20021;-35
2024/03/16 12:10:56;;;;;;;0.10;0.10;;;21.10;91.40;;;;;;5052878;28;20024;-35
2024/03/16 12:13:22;;;;;;;0.20;0.20;;;21.10;91.40;;;;;;5052761;28;20024;-36
2024/03/16 12:15:51;;;;;;;0.20;0.10;;;21.20;91.60;;;;;;5053104;28;20065;-35
2024/03/16 12:18:21;;;;;;;0.22;0.10;;;21.20;91.60;;;;;;5053096;28;20387;-35
2024/03/16 12:20:47;;;;;;;0.60;0.28;;;21.20;91.70;;;;;;5052177;28;20033;-35
2024/03/16 12:23:13;;;;;;;0.10;0.10;;;21.30;91.70;;;;;;5053894;28;20033;-35
2024/03/16 12:25:39;;;;;;;0.50;0.28;;;21.40;91.70;;;;;;5053212;28;20035;-38
2024/03/16 12:28:06;;;;;;;0.43;0.10;;;21.60;91.60;;;;;;5053370;28;20032;-39
2024/03/16 12:30:35;;;;;;;0.55;0.17;;;21.70;91.50;;;;;;5053320;28;20021;-36
2024/03/16 12:33:02;;;;;;;0.95;0.20;;;22.00;91.10;;;;;;5053433;28;20025;-38
2024/03/16 12:35:31;;;;;;;0.35;0.20;;;22.20;90.50;;;;;;5053152;28;20107;-37
2024/03/16 12:38:00;;;;;;;0.35;0.30;;;22.50;90.00;;;;;;5052970;28;20033;-38
2024/03/16 12:40:26;;;;;;;0.30;0.30;;;22.80;89.00;;;;;;5052382;28;20482;-35
2024/03/16 12:42:52;;;;;;;0.47;0.30;;;23.20;88.00;;;;;;5052382;28;20099;-35
2024/03/16 12:45:18;;;;;;;0.13;0.10;;;23.70;87.10;;;;;;5052581;28;20033;-36
2024/03/16 12:47:44;;;;;;;0.47;0.28;;;24.00;86.30;;;;;;5053206;28;20036;-37
2024/03/16 12:50:09;;;;;;;0.20;0.10;;;24.20;85.60;;;;;;5053986;28;20079;-37